sensor_id;sensor_type;location;lat;lon;timestamp;temperature;humidity
37896;DHT22;23733;53.254;10.430;2023-05-07T00:00:13;8.90;99.90
37896;DHT22;23733;53.254;10.430;2023-05-07T00:02:41;8.90;99.90
37896;DHT22;23733;53.254;10.430;2023-05-07T00:05:07;8.80;99.90
37896;DHT22;23733;53.254;10.430;2023-05-07T00:07:34;8.80;99.90
37896;DHT22;23733;53.254;10.430;2023-05-07T00:10:00;8.80;99.90
37896;DHT22;23733;53.254;10.430;2023-05-07T00:12:26;8.80;99.90
37896;DHT22;23733;53.254;10.430;2023-05-07T00:14:52;8.80;99.90
37896;DHT22;23733;53.254;10.430;2023-05-07T00:17:18;8.80;99.90
37896;DHT22;23733;53.254;10.430;2023-05-07T00:19:44;8.80;99.90
37896;DHT22;23733;53.254;10.430;2023-05-07T00:22:10;8.80;99.90
37896;DHT22;23733;53.254;10.430;2023-05-07T00:24:36;8.80;99.90
37896;DHT22;23733;53.254;10.430;2023-05-07T00:27:02;8.80;99.90
37896;DHT22;23733;53.254;10.430;2023-05-07T00:29:28;8.80;99.90
37896;DHT22;23733;53.254;10.430;2023-05-07T00:31:54;8.80;99.90
37896;DHT22;23733;53.254;10.430;2023-05-07T00:34:20;8.80;99.90
37896;DHT22;23733;53.254;10.430;2023-05-07T00:36:46;8.80;99.90
37896;DHT22;23733;53.254;10.430;2023-05-07T00:39:12;8.80;99.90
37896;DHT22;23733;53.254;10.430;2023-05-07T00:41:38;8.80;99.90
37896;DHT22;23733;53.254;10.430;2023-05-07T00:44:04;8.80;99.90
37896;DHT22;23733;53.254;10.430;2023-05-07T00:46:31;8.80;99.90
37896;DHT22;23733;53.254;10.430;2023-05-07T00:48:59;8.80;99.90
37896;DHT22;23733;53.254;10.430;2023-05-07T00:51:26;8.80;99.90
37896;DHT22;23733;53.254;10.430;2023-05-07T00:53:53;8.80;99.90
37896;DHT22;23733;53.254;10.430;2023-05-07T00:56:21;8.80;99.90
37896;DHT22;23733;53.254;10.430;2023-05-07T00:58:47;8.80;99.90
37896;DHT22;23733;53.254;10.430;2023-05-07T01:01:14;8.80;99.90
37896;DHT22;23733;53.254;10.430;2023-05-07T01:03:42;8.80;99.90
37896;DHT22;23733;53.254;10.430;2023-05-07T01:06:09;8.80;99.90
37896;DHT22;23733;53.254;10.430;2023-05-07T01:08:39;8.80;99.90
37896;DHT22;23733;53.254;10.430;2023-05-07T01:11:06;8.80;99.90
37896;DHT22;23733;53.254;10.430;2023-05-07T01:13:34;8.90;99.90
37896;DHT22;23733;53.254;10.430;2023-05-07T01:16:00;8.90;99.90
37896;DHT22;23733;53.254;10.430;2023-05-07T01:18:26;8.90;99.90
37896;DHT22;23733;53.254;10.430;2023-05-07T01:20:54;8.80;99.90
37896;DHT22;23733;53.254;10.430;2023-05-07T01:23:21;8.80;99.90
37896;DHT22;23733;53.254;10.430;2023-05-07T01:25:52;8.80;99.90
37896;DHT22;23733;53.254;10.430;2023-05-07T01:28:18;8.80;99.90
37896;DHT22;23733;53.254;10.430;2023-05-07T01:30:48;8.80;99.90
37896;DHT22;23733;53.254;10.430;2023-05-07T01:33:19;8.80;99.90
37896;DHT22;23733;53.254;10.430;2023-05-07T01:35:49;8.80;99.90
37896;DHT22;23733;53.254;10.430;2023-05-07T01:38:17;8.80;99.90
37896;DHT22;23733;53.254;10.430;2023-05-07T01:40:43;8.80;99.90
37896;DHT22;23733;53.254;10.430;2023-05-07T01:43:10;8.80;99.90
37896;DHT22;23733;53.254;10.430;2023-05-07T01:45:36;8.80;99.90
37896;DHT22;23733;53.254;10.430;2023-05-07T01:48:03;8.80;99.90
37896;DHT22;23733;53.254;10.430;2023-05-07T01:50:30;8.80;99.90
37896;DHT22;23733;53.254;10.430;2023-05-07T01:52:57;8.80;99.90
37896;DHT22;23733;53.254;10.430;2023-05-07T01:55:23;8.70;99.90
37896;DHT22;23733;53.254;10.430;2023-05-07T01:57:49;8.80;99.90
37896;DHT22;23733;53.254;10.430;2023-05-07T02:00:15;8.80;99.90
37896;DHT22;23733;53.254;10.430;2023-05-07T02:02:41;8.80;99.90
37896;DHT22;23733;53.254;10.430;2023-05-07T02:05:08;8.70;99.90
37896;DHT22;23733;53.254;10.430;2023-05-07T02:07:34;8.70;99.90
37896;DHT22;23733;53.254;10.430;2023-05-07T02:09:59;8.60;99.90
37896;DHT22;23733;53.254;10.430;2023-05-07T02:12:25;8.60;99.90
37896;DHT22;23733;53.254;10.430;2023-05-07T02:14:51;8.70;99.90
37896;DHT22;23733;53.254;10.430;2023-05-07T02:17:18;8.70;99.90
37896;DHT22;23733;53.254;10.430;2023-05-07T02:19:44;8.70;99.90
37896;DHT22;23733;53.254;10.430;2023-05-07T02:22:10;8.60;99.90
37896;DHT22;23733;53.254;10.430;2023-05-07T02:24:36;8.60;99.90
37896;DHT22;23733;53.254;10.430;2023-05-07T02:27:02;8.60;99.90
37896;DHT22;23733;53.254;10.430;2023-05-07T02:29:29;8.60;99.90
37896;DHT22;23733;53.254;10.430;2023-05-07T02:31:55;8.60;99.90
37896;DHT22;23733;53.254;10.430;2023-05-07T02:34:21;8.60;99.90
37896;DHT22;23733;53.254;10.430;2023-05-07T02:36:47;8.60;99.90
37896;DHT22;23733;53.254;10.430;2023-05-07T02:39:13;8.60;99.90
37896;DHT22;23733;53.254;10.430;2023-05-07T02:41:39;8.60;99.90
37896;DHT22;23733;53.254;10.430;2023-05-07T02:44:05;8.60;99.90
37896;DHT22;23733;53.254;10.430;2023-05-07T02:46:31;8.70;99.90
37896;DHT22;23733;53.254;10.430;2023-05-07T02:48:57;8.60;99.90
37896;DHT22;23733;53.254;10.430;2023-05-07T02:51:23;8.60;99.90
37896;DHT22;23733;53.254;10.430;2023-05-07T02:53:49;8.60;99.90
37896;DHT22;23733;53.254;10.430;2023-05-07T02:56:15;8.60;99.90
37896;DHT22;23733;53.254;10.430;2023-05-07T02:58:41;8.60;99.90
37896;DHT22;23733;53.254;10.430;2023-05-07T03:01:08;8.70;99.90
37896;DHT22;23733;53.254;10.430;2023-05-07T03:03:34;8.60;99.90
37896;DHT22;23733;53.254;10.430;2023-05-07T03:06:01;8.60;99.90
37896;DHT22;23733;53.254;10.430;2023-05-07T03:08:27;8.60;99.90
37896;DHT22;23733;53.254;10.430;2023-05-07T03:10:53;8.60;99.90
37896;DHT22;23733;53.254;10.430;2023-05-07T03:13:19;8.70;99.90
37896;DHT22;23733;53.254;10.430;2023-05-07T03:15:45;8.60;99.90
37896;DHT22;23733;53.254;10.430;2023-05-07T03:18:11;8.60;99.90
37896;DHT22;23733;53.254;10.430;2023-05-07T03:20:37;8.60;99.90
37896;DHT22;23733;53.254;10.430;2023-05-07T03:23:03;8.60;99.90
37896;DHT22;23733;53.254;10.430;2023-05-07T03:25:29;8.60;99.90
37896;DHT22;23733;53.254;10.430;2023-05-07T03:27:58;8.70;99.90
37896;DHT22;23733;53.254;10.430;2023-05-07T03:30:24;8.70;99.90
37896;DHT22;23733;53.254;10.430;2023-05-07T03:32:50;8.70;99.90
37896;DHT22;23733;53.254;10.430;2023-05-07T03:35:16;8.70;99.90
37896;DHT22;23733;53.254;10.430;2023-05-07T03:37:42;8.70;99.90
37896;DHT22;23733;53.254;10.430;2023-05-07T03:40:08;8.70;99.90
37896;DHT22;23733;53.254;10.430;2023-05-07T03:42:35;8.70;99.90
37896;DHT22;23733;53.254;10.430;2023-05-07T03:45:02;8.70;99.90
37896;DHT22;23733;53.254;10.430;2023-05-07T03:47:28;8.70;99.90
37896;DHT22;23733;53.254;10.430;2023-05-07T03:49:54;8.70;99.90
37896;DHT22;23733;53.254;10.430;2023-05-07T03:52:20;8.70;99.90
37896;DHT22;23733;53.254;10.430;2023-05-07T03:54:52;8.70;99.90
37896;DHT22;23733;53.254;10.430;2023-05-07T03:57:18;8.60;99.90
37896;DHT22;23733;53.254;10.430;2023-05-07T03:59:44;8.70;99.90
37896;DHT22;23733;53.254;10.430;2023-05-07T04:02:10;8.60;99.90
37896;DHT22;23733;53.254;10.430;2023-05-07T04:04:36;8.60;99.90
37896;DHT22;23733;53.254;10.430;2023-05-07T04:07:02;8.70;99.90
37896;DHT22;23733;53.254;10.430;2023-05-07T04:09:28;8.60;99.90
37896;DHT22;23733;53.254;10.430;2023-05-07T04:11:54;8.70;99.90
37896;DHT22;23733;53.254;10.430;2023-05-07T04:14:20;8.70;99.90
37896;DHT22;23733;53.254;10.430;2023-05-07T04:16:46;8.70;99.90
37896;DHT22;23733;53.254;10.430;2023-05-07T04:19:12;8.70;99.90
37896;DHT22;23733;53.254;10.430;2023-05-07T04:21:38;8.70;99.90
37896;DHT22;23733;53.254;10.430;2023-05-07T04:24:05;8.70;99.90
37896;DHT22;23733;53.254;10.430;2023-05-07T04:26:31;8.70;99.90
37896;DHT22;23733;53.254;10.430;2023-05-07T04:28:57;8.70;99.90
37896;DHT22;23733;53.254;10.430;2023-05-07T04:31:24;8.70;99.90
37896;DHT22;23733;53.254;10.430;2023-05-07T04:33:50;8.70;99.90
37896;DHT22;23733;53.254;10.430;2023-05-07T04:36:17;8.70;99.90
37896;DHT22;23733;53.254;10.430;2023-05-07T04:38:43;8.70;99.90
37896;DHT22;23733;53.254;10.430;2023-05-07T04:41:09;8.60;99.90
37896;DHT22;23733;53.254;10.430;2023-05-07T04:43:35;8.70;99.90
37896;DHT22;23733;53.254;10.430;2023-05-07T04:46:01;8.70;99.90
37896;DHT22;23733;53.254;10.430;2023-05-07T04:48:27;8.70;99.90
37896;DHT22;23733;53.254;10.430;2023-05-07T04:50:54;8.70;99.90
37896;DHT22;23733;53.254;10.430;2023-05-07T04:53:20;8.70;99.90
37896;DHT22;23733;53.254;10.430;2023-05-07T04:55:47;8.70;99.90
37896;DHT22;23733;53.254;10.430;2023-05-07T04:58:13;8.70;99.90
37896;DHT22;23733;53.254;10.430;2023-05-07T05:00:39;8.70;99.90
37896;DHT22;23733;53.254;10.430;2023-05-07T05:03:06;8.70;99.90
37896;DHT22;23733;53.254;10.430;2023-05-07T05:05:33;8.70;99.90
37896;DHT22;23733;53.254;10.430;2023-05-07T05:07:59;8.70;99.90
37896;DHT22;23733;53.254;10.430;2023-05-07T05:10:25;8.70;99.90
37896;DHT22;23733;53.254;10.430;2023-05-07T05:12:51;8.80;99.90
37896;DHT22;23733;53.254;10.430;2023-05-07T05:15:17;8.80;99.90
37896;DHT22;23733;53.254;10.430;2023-05-07T05:17:43;8.80;99.90
37896;DHT22;23733;53.254;10.430;2023-05-07T05:20:09;8.80;99.90
37896;DHT22;23733;53.254;10.430;2023-05-07T05:22:37;8.80;99.90
37896;DHT22;23733;53.254;10.430;2023-05-07T05:25:04;8.80;99.90
37896;DHT22;23733;53.254;10.430;2023-05-07T05:27:30;8.90;99.90
37896;DHT22;23733;53.254;10.430;2023-05-07T05:29:56;8.90;99.90
37896;DHT22;23733;53.254;10.430;2023-05-07T05:32:22;8.90;99.90
37896;DHT22;23733;53.254;10.430;2023-05-07T05:34:48;8.80;99.90
37896;DHT22;23733;53.254;10.430;2023-05-07T05:37:14;8.90;99.90
37896;DHT22;23733;53.254;10.430;2023-05-07T05:39:40;8.90;99.90
37896;DHT22;23733;53.254;10.430;2023-05-07T05:42:07;8.90;99.90
37896;DHT22;23733;53.254;10.430;2023-05-07T05:44:33;8.90;99.90
37896;DHT22;23733;53.254;10.430;2023-05-07T05:46:59;8.90;99.90
37896;DHT22;23733;53.254;10.430;2023-05-07T05:49:25;8.90;99.90
37896;DHT22;23733;53.254;10.430;2023-05-07T05:51:51;8.90;99.90
37896;DHT22;23733;53.254;10.430;2023-05-07T05:54:17;8.90;99.90
37896;DHT22;23733;53.254;10.430;2023-05-07T05:56:43;8.90;99.90
37896;DHT22;23733;53.254;10.430;2023-05-07T05:59:10;8.90;99.90
37896;DHT22;23733;53.254;10.430;2023-05-07T06:01:36;8.90;99.90
37896;DHT22;23733;53.254;10.430;2023-05-07T06:04:02;9.00;99.90
37896;DHT22;23733;53.254;10.430;2023-05-07T06:06:28;9.00;99.90
37896;DHT22;23733;53.254;10.430;2023-05-07T06:08:54;9.00;99.90
37896;DHT22;23733;53.254;10.430;2023-05-07T06:11:20;9.00;99.90
37896;DHT22;23733;53.254;10.430;2023-05-07T06:13:46;9.00;99.90
37896;DHT22;23733;53.254;10.430;2023-05-07T06:16:12;9.00;99.90
37896;DHT22;23733;53.254;10.430;2023-05-07T06:18:38;9.00;99.90
37896;DHT22;23733;53.254;10.430;2023-05-07T06:21:04;9.00;99.90
37896;DHT22;23733;53.254;10.430;2023-05-07T06:23:30;9.00;99.90
37896;DHT22;23733;53.254;10.430;2023-05-07T06:25:56;9.10;99.90
37896;DHT22;23733;53.254;10.430;2023-05-07T06:28:22;9.10;99.90
37896;DHT22;23733;53.254;10.430;2023-05-07T06:30:48;9.10;99.90
37896;DHT22;23733;53.254;10.430;2023-05-07T06:33:16;9.10;99.90
37896;DHT22;23733;53.254;10.430;2023-05-07T06:35:41;9.10;99.90
37896;DHT22;23733;53.254;10.430;2023-05-07T06:38:07;9.10;99.90
37896;DHT22;23733;53.254;10.430;2023-05-07T06:40:33;9.10;99.90
37896;DHT22;23733;53.254;10.430;2023-05-07T06:42:59;9.10;99.90
37896;DHT22;23733;53.254;10.430;2023-05-07T06:45:25;9.10;99.90
37896;DHT22;23733;53.254;10.430;2023-05-07T06:47:51;9.20;99.90
37896;DHT22;23733;53.254;10.430;2023-05-07T06:50:18;9.20;99.90
37896;DHT22;23733;53.254;10.430;2023-05-07T06:52:44;9.20;99.90
37896;DHT22;23733;53.254;10.430;2023-05-07T06:55:10;9.20;99.90
37896;DHT22;23733;53.254;10.430;2023-05-07T06:57:38;9.20;99.90
37896;DHT22;23733;53.254;10.430;2023-05-07T07:00:05;9.20;99.90
37896;DHT22;23733;53.254;10.430;2023-05-07T07:02:32;9.20;99.90
37896;DHT22;23733;53.254;10.430;2023-05-07T07:04:58;9.20;99.90
37896;DHT22;23733;53.254;10.430;2023-05-07T07:07:24;9.20;99.90
37896;DHT22;23733;53.254;10.430;2023-05-07T07:09:50;9.30;99.90
37896;DHT22;23733;53.254;10.430;2023-05-07T07:12:17;9.30;99.90
37896;DHT22;23733;53.254;10.430;2023-05-07T07:14:43;9.30;99.90
37896;DHT22;23733;53.254;10.430;2023-05-07T07:17:09;9.30;99.90
37896;DHT22;23733;53.254;10.430;2023-05-07T07:19:35;9.30;99.90
37896;DHT22;23733;53.254;10.430;2023-05-07T07:22:01;9.40;99.90
37896;DHT22;23733;53.254;10.430;2023-05-07T07:24:27;9.30;99.90
37896;DHT22;23733;53.254;10.430;2023-05-07T07:26:53;9.40;99.90
37896;DHT22;23733;53.254;10.430;2023-05-07T07:29:21;9.40;99.90
37896;DHT22;23733;53.254;10.430;2023-05-07T07:31:48;9.40;99.90
37896;DHT22;23733;53.254;10.430;2023-05-07T07:34:15;9.40;99.90
37896;DHT22;23733;53.254;10.430;2023-05-07T07:36:41;9.40;99.90
37896;DHT22;23733;53.254;10.430;2023-05-07T07:39:07;9.40;99.90
37896;DHT22;23733;53.254;10.430;2023-05-07T07:41:33;9.40;99.90
37896;DHT22;23733;53.254;10.430;2023-05-07T07:43:59;9.50;99.90
37896;DHT22;23733;53.254;10.430;2023-05-07T07:46:25;9.50;99.90
37896;DHT22;23733;53.254;10.430;2023-05-07T07:48:52;9.50;99.90
37896;DHT22;23733;53.254;10.430;2023-05-07T07:51:18;9.60;99.90
37896;DHT22;23733;53.254;10.430;2023-05-07T07:53:44;9.60;99.90
37896;DHT22;23733;53.254;10.430;2023-05-07T07:56:10;9.60;99.90
37896;DHT22;23733;53.254;10.430;2023-05-07T07:58:36;9.60;99.90
37896;DHT22;23733;53.254;10.430;2023-05-07T08:01:03;9.70;99.90
37896;DHT22;23733;53.254;10.430;2023-05-07T08:03:29;9.70;99.90
37896;DHT22;23733;53.254;10.430;2023-05-07T08:05:58;9.70;99.90
37896;DHT22;23733;53.254;10.430;2023-05-07T08:08:24;9.70;99.90
37896;DHT22;23733;53.254;10.430;2023-05-07T08:10:50;9.70;99.90
37896;DHT22;23733;53.254;10.430;2023-05-07T08:13:18;9.80;99.90
37896;DHT22;23733;53.254;10.430;2023-05-07T08:15:44;9.80;99.90
37896;DHT22;23733;53.254;10.430;2023-05-07T08:18:10;9.80;99.90
37896;DHT22;23733;53.254;10.430;2023-05-07T08:20:36;9.80;99.90
37896;DHT22;23733;53.254;10.430;2023-05-07T08:23:05;9.80;99.90
37896;DHT22;23733;53.254;10.430;2023-05-07T08:25:33;9.80;99.90
37896;DHT22;23733;53.254;10.430;2023-05-07T08:28:00;9.80;99.90
37896;DHT22;23733;53.254;10.430;2023-05-07T08:30:26;9.80;99.90
37896;DHT22;23733;53.254;10.430;2023-05-07T08:32:52;9.80;99.90
37896;DHT22;23733;53.254;10.430;2023-05-07T08:35:18;9.80;99.90
37896;DHT22;23733;53.254;10.430;2023-05-07T08:37:44;9.80;99.90
37896;DHT22;23733;53.254;10.430;2023-05-07T08:40:10;9.80;99.90
37896;DHT22;23733;53.254;10.430;2023-05-07T08:42:36;9.90;99.90
37896;DHT22;23733;53.254;10.430;2023-05-07T08:45:04;9.90;99.90
37896;DHT22;23733;53.254;10.430;2023-05-07T08:47:43;9.90;99.90
37896;DHT22;23733;53.254;10.430;2023-05-07T08:50:11;9.90;99.90
37896;DHT22;23733;53.254;10.430;2023-05-07T08:52:37;10.00;99.90
37896;DHT22;23733;53.254;10.430;2023-05-07T08:55:04;10.00;99.90
37896;DHT22;23733;53.254;10.430;2023-05-07T08:57:31;10.10;99.90
37896;DHT22;23733;53.254;10.430;2023-05-07T11:05:31;11.10;99.90
37896;DHT22;23733;53.254;10.430;2023-05-07T11:08:01;11.10;99.90
37896;DHT22;23733;53.254;10.430;2023-05-07T11:10:56;11.10;99.90
37896;DHT22;23733;53.254;10.430;2023-05-07T11:13:42;11.10;99.90
37896;DHT22;23733;53.254;10.430;2023-05-07T11:16:21;11.20;99.90
37896;DHT22;23733;53.254;10.430;2023-05-07T11:18:50;11.30;99.90
37896;DHT22;23733;53.254;10.430;2023-05-07T11:21:33;11.30;99.90
37896;DHT22;23733;53.254;10.430;2023-05-07T11:24:01;11.40;99.90
37896;DHT22;23733;53.254;10.430;2023-05-07T11:26:29;11.40;99.90
37896;DHT22;23733;53.254;10.430;2023-05-07T11:28:55;11.50;99.90
37896;DHT22;23733;53.254;10.430;2023-05-07T11:31:24;11.60;99.90
37896;DHT22;23733;53.254;10.430;2023-05-07T11:33:52;11.70;99.90
37896;DHT22;23733;53.254;10.430;2023-05-07T11:36:19;11.70;99.90
37896;DHT22;23733;53.254;10.430;2023-05-07T11:38:46;11.80;99.90
37896;DHT22;23733;53.254;10.430;2023-05-07T11:41:12;11.80;99.90
37896;DHT22;23733;53.254;10.430;2023-05-07T11:43:53;11.90;99.90
37896;DHT22;23733;53.254;10.430;2023-05-07T11:46:20;11.90;99.90
37896;DHT22;23733;53.254;10.430;2023-05-07T11:48:47;12.00;99.90
37896;DHT22;23733;53.254;10.430;2023-05-07T11:51:13;12.00;99.90
37896;DHT22;23733;53.254;10.430;2023-05-07T11:53:44;12.00;99.90
37896;DHT22;23733;53.254;10.430;2023-05-07T11:56:12;12.10;99.90
37896;DHT22;23733;53.254;10.430;2023-05-07T11:58:39;12.10;99.90
37896;DHT22;23733;53.254;10.430;2023-05-07T12:01:09;12.20;99.90
37896;DHT22;23733;53.254;10.430;2023-05-07T15:22:13;12.30;99.90
37896;DHT22;23733;53.254;10.430;2023-05-07T15:24:39;15.30;99.90
37896;DHT22;23733;53.254;10.430;2023-05-07T15:27:05;15.40;99.90
37896;DHT22;23733;53.254;10.430;2023-05-07T15:29:31;15.40;99.90
37896;DHT22;23733;53.254;10.430;2023-05-07T15:31:57;15.50;99.90
37896;DHT22;23733;53.254;10.430;2023-05-07T15:34:23;15.50;99.90
37896;DHT22;23733;53.254;10.430;2023-05-07T15:36:50;15.50;99.90
37896;DHT22;23733;53.254;10.430;2023-05-07T15:39:16;15.50;99.90
37896;DHT22;23733;53.254;10.430;2023-05-07T15:41:42;15.50;99.90
37896;DHT22;23733;53.254;10.430;2023-05-07T15:44:08;15.50;99.90
37896;DHT22;23733;53.254;10.430;2023-05-07T15:46:34;15.50;99.90
37896;DHT22;23733;53.254;10.430;2023-05-07T15:49:02;15.60;99.90
37896;DHT22;23733;53.254;10.430;2023-05-07T15:51:29;15.60;99.90
37896;DHT22;23733;53.254;10.430;2023-05-07T15:53:56;15.60;99.90
37896;DHT22;23733;53.254;10.430;2023-05-07T15:56:22;15.60;99.90
37896;DHT22;23733;53.254;10.430;2023-05-07T15:58:49;15.50;99.90
37896;DHT22;23733;53.254;10.430;2023-05-07T16:01:15;15.40;99.90
37896;DHT22;23733;53.254;10.430;2023-05-07T16:03:41;15.50;99.90
37896;DHT22;23733;53.254;10.430;2023-05-07T16:06:08;15.40;99.90
37896;DHT22;23733;53.254;10.430;2023-05-07T16:08:36;15.50;99.90
37896;DHT22;23733;53.254;10.430;2023-05-07T16:11:04;15.50;99.90
37896;DHT22;23733;53.254;10.430;2023-05-07T16:13:30;15.40;99.90
37896;DHT22;23733;53.254;10.430;2023-05-07T16:15:56;15.50;99.90
37896;DHT22;23733;53.254;10.430;2023-05-07T16:18:25;15.50;99.90
37896;DHT22;23733;53.254;10.430;2023-05-07T16:20:51;15.50;99.90
37896;DHT22;23733;53.254;10.430;2023-05-07T16:23:19;15.50;99.90
37896;DHT22;23733;53.254;10.430;2023-05-07T16:25:45;15.50;99.90
37896;DHT22;23733;53.254;10.430;2023-05-07T16:28:12;15.40;99.90
37896;DHT22;23733;53.254;10.430;2023-05-07T16:30:38;15.50;99.90
37896;DHT22;23733;53.254;10.430;2023-05-07T16:33:04;15.50;99.90
37896;DHT22;23733;53.254;10.430;2023-05-07T16:35:30;15.50;99.90
37896;DHT22;23733;53.254;10.430;2023-05-07T16:37:56;15.50;99.90
37896;DHT22;23733;53.254;10.430;2023-05-07T16:40:22;15.50;99.90
37896;DHT22;23733;53.254;10.430;2023-05-07T16:42:48;15.50;99.90
37896;DHT22;23733;53.254;10.430;2023-05-07T16:45:14;15.50;99.90
37896;DHT22;23733;53.254;10.430;2023-05-07T16:47:40;15.50;99.90
37896;DHT22;23733;53.254;10.430;2023-05-07T16:50:07;15.50;99.90
37896;DHT22;23733;53.254;10.430;2023-05-07T17:07:13;15.40;99.90
37896;DHT22;23733;53.254;10.430;2023-05-07T17:14:34;15.20;99.90
37896;DHT22;23733;53.254;10.430;2023-05-07T17:17:00;15.10;99.90
37896;DHT22;23733;53.254;10.430;2023-05-07T17:19:26;15.10;99.90
37896;DHT22;23733;53.254;10.430;2023-05-07T17:21:52;15.10;99.90
37896;DHT22;23733;53.254;10.430;2023-05-07T17:24:19;15.10;99.90
37896;DHT22;23733;53.254;10.430;2023-05-07T17:26:47;15.10;99.90
37896;DHT22;23733;53.254;10.430;2023-05-07T17:29:12;15.10;99.90
37896;DHT22;23733;53.254;10.430;2023-05-07T17:31:38;15.00;99.90
37896;DHT22;23733;53.254;10.430;2023-05-07T17:34:04;15.00;99.90
37896;DHT22;23733;53.254;10.430;2023-05-07T17:36:30;15.00;99.90
37896;DHT22;23733;53.254;10.430;2023-05-07T17:38:57;14.90;99.90
37896;DHT22;23733;53.254;10.430;2023-05-07T17:41:23;14.90;99.90
37896;DHT22;23733;53.254;10.430;2023-05-07T17:43:49;15.00;99.90
37896;DHT22;23733;53.254;10.430;2023-05-07T17:46:15;14.90;99.90
37896;DHT22;23733;53.254;10.430;2023-05-07T17:48:41;14.90;99.90
37896;DHT22;23733;53.254;10.430;2023-05-07T18:03:20;14.80;99.90
37896;DHT22;23733;53.254;10.430;2023-05-07T18:05:46;14.70;99.90
37896;DHT22;23733;53.254;10.430;2023-05-07T18:08:12;14.60;99.90
37896;DHT22;23733;53.254;10.430;2023-05-07T18:10:38;14.60;99.90
37896;DHT22;23733;53.254;10.430;2023-05-07T18:13:04;14.60;99.90
37896;DHT22;23733;53.254;10.430;2023-05-07T18:15:30;14.60;99.90
37896;DHT22;23733;53.254;10.430;2023-05-07T18:17:56;14.60;99.90
37896;DHT22;23733;53.254;10.430;2023-05-07T18:20:22;14.60;99.90
37896;DHT22;23733;53.254;10.430;2023-05-07T18:22:48;14.60;99.90
37896;DHT22;23733;53.254;10.430;2023-05-07T18:25:14;14.60;99.90
37896;DHT22;23733;53.254;10.430;2023-05-07T18:27:40;14.60;99.90
37896;DHT22;23733;53.254;10.430;2023-05-07T18:30:06;14.60;99.90
37896;DHT22;23733;53.254;10.430;2023-05-07T18:32:32;14.50;99.90
37896;DHT22;23733;53.254;10.430;2023-05-07T18:34:58;14.40;99.90
37896;DHT22;23733;53.254;10.430;2023-05-07T18:37:24;14.40;99.90
37896;DHT22;23733;53.254;10.430;2023-05-07T18:39:50;14.40;99.90
37896;DHT22;23733;53.254;10.430;2023-05-07T18:42:16;14.40;99.90
37896;DHT22;23733;53.254;10.430;2023-05-07T18:44:42;14.30;99.90
37896;DHT22;23733;53.254;10.430;2023-05-07T18:47:08;14.30;99.90
37896;DHT22;23733;53.254;10.430;2023-05-07T18:49:35;14.20;99.90
37896;DHT22;23733;53.254;10.430;2023-05-07T18:52:02;14.20;99.90
37896;DHT22;23733;53.254;10.430;2023-05-07T18:54:28;14.20;99.90
37896;DHT22;23733;53.254;10.430;2023-05-07T18:56:54;14.20;99.90
37896;DHT22;23733;53.254;10.430;2023-05-07T18:59:20;14.20;99.90
37896;DHT22;23733;53.254;10.430;2023-05-07T19:01:46;14.20;99.90
37896;DHT22;23733;53.254;10.430;2023-05-07T19:04:12;14.10;99.90
37896;DHT22;23733;53.254;10.430;2023-05-07T19:06:38;14.20;99.90
37896;DHT22;23733;53.254;10.430;2023-05-07T19:21:15;14.10;99.90
37896;DHT22;23733;53.254;10.430;2023-05-07T19:23:41;13.90;99.90
37896;DHT22;23733;53.254;10.430;2023-05-07T19:26:08;13.80;99.90
37896;DHT22;23733;53.254;10.430;2023-05-07T19:28:38;13.80;99.90
37896;DHT22;23733;53.254;10.430;2023-05-07T19:31:04;13.80;99.90
37896;DHT22;23733;53.254;10.430;2023-05-07T19:33:30;13.70;99.90
37896;DHT22;23733;53.254;10.430;2023-05-07T20:46:46;13.70;99.90
37896;DHT22;23733;53.254;10.430;2023-05-07T20:49:12;12.60;99.90
37896;DHT22;23733;53.254;10.430;2023-05-07T20:51:38;12.60;99.90
37896;DHT22;23733;53.254;10.430;2023-05-07T20:54:04;12.50;99.90
37896;DHT22;23733;53.254;10.430;2023-05-07T20:56:33;12.50;99.90
37896;DHT22;23733;53.254;10.430;2023-05-07T20:58:59;12.50;99.90
37896;DHT22;23733;53.254;10.430;2023-05-07T21:01:25;12.40;99.90
37896;DHT22;23733;53.254;10.430;2023-05-07T21:03:51;12.40;99.90
37896;DHT22;23733;53.254;10.430;2023-05-07T21:06:18;12.40;99.90
37896;DHT22;23733;53.254;10.430;2023-05-07T21:08:45;12.30;99.90
37896;DHT22;23733;53.254;10.430;2023-05-07T21:11:11;12.30;99.90
37896;DHT22;23733;53.254;10.430;2023-05-07T21:13:37;12.30;99.90
37896;DHT22;23733;53.254;10.430;2023-05-07T21:16:03;12.20;99.90
37896;DHT22;23733;53.254;10.430;2023-05-07T21:18:30;12.20;99.90
37896;DHT22;23733;53.254;10.430;2023-05-07T21:20:56;12.10;99.90
37896;DHT22;23733;53.254;10.430;2023-05-07T21:23:22;12.10;99.90
37896;DHT22;23733;53.254;10.430;2023-05-07T21:25:48;12.10;99.90
37896;DHT22;23733;53.254;10.430;2023-05-07T21:28:16;12.10;99.90
37896;DHT22;23733;53.254;10.430;2023-05-07T21:30:42;12.10;99.90
37896;DHT22;23733;53.254;10.430;2023-05-07T21:33:08;12.10;99.90
37896;DHT22;23733;53.254;10.430;2023-05-07T21:35:35;12.00;99.90
37896;DHT22;23733;53.254;10.430;2023-05-07T21:38:01;12.00;99.90
37896;DHT22;23733;53.254;10.430;2023-05-07T21:40:27;12.00;99.90
37896;DHT22;23733;53.254;10.430;2023-05-07T21:42:53;12.00;99.90
37896;DHT22;23733;53.254;10.430;2023-05-07T21:45:19;12.00;99.90
37896;DHT22;23733;53.254;10.430;2023-05-07T21:47:46;11.90;99.90
37896;DHT22;23733;53.254;10.430;2023-05-07T21:50:12;12.00;99.90
37896;DHT22;23733;53.254;10.430;2023-05-07T21:52:38;12.00;99.90
37896;DHT22;23733;53.254;10.430;2023-05-07T22:31:40;11.90;99.90
37896;DHT22;23733;53.254;10.430;2023-05-07T22:34:06;11.50;99.90
37896;DHT22;23733;53.254;10.430;2023-05-07T22:36:32;11.50;99.90
37896;DHT22;23733;53.254;10.430;2023-05-07T22:41:24;11.50;99.90
37896;DHT22;23733;53.254;10.430;2023-05-07T22:43:51;11.50;99.90
37896;DHT22;23733;53.254;10.430;2023-05-07T22:46:17;11.40;99.90
37896;DHT22;23733;53.254;10.430;2023-05-07T22:48:43;11.40;99.90
37896;DHT22;23733;53.254;10.430;2023-05-07T22:51:12;11.40;99.90
37896;DHT22;23733;53.254;10.430;2023-05-07T22:53:39;11.40;99.90
37896;DHT22;23733;53.254;10.430;2023-05-07T22:56:06;11.40;99.90
37896;DHT22;23733;53.254;10.430;2023-05-07T22:58:32;11.30;99.90
37896;DHT22;23733;53.254;10.430;2023-05-07T23:00:58;11.40;99.90
37896;DHT22;23733;53.254;10.430;2023-05-07T23:03:24;11.30;99.90
37896;DHT22;23733;53.254;10.430;2023-05-07T23:05:51;11.30;99.90
37896;DHT22;23733;53.254;10.430;2023-05-07T23:08:17;11.30;99.90
37896;DHT22;23733;53.254;10.430;2023-05-07T23:15:42;11.20;99.90
37896;DHT22;23733;53.254;10.430;2023-05-07T23:18:08;11.10;99.90
37896;DHT22;23733;53.254;10.430;2023-05-07T23:20:34;11.10;99.90
37896;DHT22;23733;53.254;10.430;2023-05-07T23:23:01;11.10;99.90